createdAt,value
2019-05-20T00:04:27.410Z,100841.73
2019-05-20T00:09:29.214Z,100844.00
2019-05-20T00:14:31.235Z,100845.40
2019-05-20T00:19:35.870Z,100850.02
2019-05-20T00:24:42.187Z,100842.12
2019-05-20T00:29:44.203Z,100845.25
2019-05-20T00:34:48.550Z,100843.46
2019-05-20T00:39:50.594Z,100834.72
2019-05-20T00:44:54.085Z,100837.80
2019-05-20T00:49:56.753Z,100842.59
2019-05-20T00:55:00.616Z,100838.28
2019-05-20T01:00:03.213Z,100836.95
2019-05-20T01:05:05.181Z,100833.81
2019-05-20T01:10:07.019Z,100831.44
2019-05-20T01:15:09.127Z,100835.27
2019-05-20T01:20:11.734Z,100836.95
2019-05-20T01:25:14.991Z,100833.50
2019-05-20T01:30:20.048Z,100826.52
2019-05-20T01:35:23.530Z,100829.41
2019-05-20T01:40:25.456Z,100826.06
2019-05-20T01:45:27.858Z,100823.61
2019-05-20T01:50:37.882Z,100820.86
2019-05-20T01:55:40.004Z,100823.05
2019-05-20T02:05:54.846Z,100827.91
2019-05-20T02:10:57.000Z,100818.07
2019-05-20T02:16:06.551Z,100817.23
2019-05-20T02:21:08.658Z,100814.61
2019-05-20T02:26:12.072Z,100814.55
2019-05-20T02:31:17.809Z,100812.67
2019-05-20T02:36:19.794Z,100808.33
2019-05-20T02:41:21.725Z,100812.16
2019-05-20T02:46:23.656Z,100815.48
2019-05-20T02:51:32.726Z,100817.52
2019-05-20T02:56:37.022Z,100823.16
2019-05-20T03:01:39.006Z,100822.77
2019-05-20T03:06:40.806Z,100832.01
2019-05-20T03:11:42.813Z,100822.41
2019-05-20T03:16:44.617Z,100822.34
2019-05-20T03:21:48.810Z,100822.97
2019-05-20T03:26:50.721Z,100829.69
2019-05-20T03:31:52.899Z,100839.57
2019-05-20T03:36:54.914Z,100843.25
2019-05-20T03:41:56.886Z,100840.28
2019-05-20T03:46:58.816Z,100856.31
2019-05-20T03:52:03.107Z,100861.90
2019-05-20T03:57:06.309Z,100855.59
2019-05-20T04:02:08.150Z,100844.00
2019-05-20T04:07:10.069Z,100847.33
2019-05-20T04:12:16.958Z,100849.67
2019-05-20T04:17:21.750Z,100856.50
2019-05-20T04:22:23.684Z,100863.22
2019-05-20T04:27:25.610Z,100854.83
2019-05-20T04:32:27.525Z,100859.05
2019-05-20T04:37:29.425Z,100851.08
2019-05-20T04:42:31.685Z,100853.20
2019-05-20T04:47:33.584Z,100857.16
2019-05-20T04:52:36.961Z,100862.31
2019-05-20T04:57:38.927Z,100861.04
2019-05-20T05:02:43.379Z,100861.08
2019-05-20T05:07:44.792Z,100859.70
2019-05-20T05:12:46.997Z,100857.86
2019-05-20T05:17:48.922Z,100861.52
2019-05-20T05:22:51.991Z,100868.61
2019-05-20T05:27:54.061Z,100878.83
2019-05-20T05:33:01.765Z,100872.55
2019-05-20T05:38:06.086Z,100875.94
2019-05-20T05:43:09.524Z,100882.84
2019-05-20T05:48:11.492Z,100889.92
2019-05-20T05:53:14.178Z,100882.36
2019-05-20T05:58:16.089Z,100882.02
2019-05-20T06:03:18.146Z,100877.70
2019-05-20T06:08:23.159Z,100887.64
2019-05-20T06:13:27.446Z,100883.97
2019-05-20T06:18:29.467Z,100881.06
2019-05-20T06:23:31.614Z,100877.69
2019-05-20T06:28:33.518Z,100883.27
2019-05-20T06:33:35.553Z,100895.59
2019-05-20T06:38:43.034Z,100890.19
2019-05-20T06:43:45.039Z,100898.89
2019-05-20T06:48:46.985Z,100900.48
2019-05-20T06:53:48.996Z,100904.92
2019-05-20T06:58:51.033Z,100921.13
2019-05-20T07:03:52.991Z,100920.81
2019-05-20T07:08:54.961Z,100918.16
2019-05-20T07:13:56.970Z,100915.83
2019-05-20T07:19:00.682Z,100922.02
2019-05-20T07:24:07.758Z,100921.80
2019-05-20T07:29:12.396Z,100928.52
2019-05-20T07:34:14.317Z,100930.84
2019-05-20T07:39:18.022Z,100942.91
2019-05-20T07:44:20.011Z,100943.16
2019-05-20T07:49:23.148Z,100946.36
2019-05-20T07:54:26.353Z,100947.50
2019-05-20T07:59:30.107Z,100945.34
2019-05-20T08:04:34.601Z,100947.06
2019-05-20T08:09:45.208Z,100938.14
2019-05-20T08:14:42.563Z,100940.70
2019-05-20T08:19:44.584Z,100950.74
2019-05-20T08:24:48.186Z,100943.05
2019-05-20T08:29:50.146Z,100953.22
2019-05-20T08:34:53.629Z,100946.28
2019-05-20T08:39:55.435Z,100942.44
2019-05-20T08:44:57.535Z,100940.04
2019-05-20T08:49:59.484Z,100941.34
2019-05-20T08:55:01.783Z,100944.87
2019-05-20T09:00:05.280Z,100955.19
2019-05-20T09:05:08.118Z,100950.23
2019-05-20T09:10:10.743Z,100957.42
2019-05-20T09:15:15.667Z,100970.94
2019-05-20T09:20:18.234Z,100973.01
2019-05-20T09:25:30.608Z,100980.09
2019-05-20T09:30:32.538Z,100982.02
2019-05-20T09:35:34.484Z,100973.84
2019-05-20T09:40:40.735Z,100976.34
2019-05-20T09:45:42.833Z,100980.44
2019-05-20T09:50:46.948Z,100981.02
2019-05-20T09:55:51.391Z,100985.84
2019-05-20T10:00:53.784Z,100971.75
2019-05-20T10:05:55.658Z,100985.59
2019-05-20T10:11:00.294Z,100986.89
2019-05-20T10:16:02.681Z,100990.05
2019-05-20T10:21:04.608Z,100994.80
2019-05-20T10:26:11.957Z,100997.41
2019-05-20T10:31:13.882Z,100997.02
2019-05-20T10:36:16.086Z,101000.42
2019-05-20T10:41:21.044Z,101003.11
2019-05-20T10:46:23.140Z,101012.52
2019-05-20T10:51:27.755Z,101017.36
2019-05-20T10:56:29.834Z,101016.05
2019-05-20T11:01:31.874Z,101022.83
2019-05-20T11:06:33.783Z,101033.36
2019-05-20T11:11:39.484Z,101041.06
2019-05-20T11:16:41.778Z,101035.44
2019-05-20T11:21:43.888Z,101041.30
2019-05-20T11:26:47.135Z,101047.90
2019-05-20T11:31:48.932Z,101044.48
2019-05-20T11:36:53.896Z,101049.58
2019-05-20T11:42:00.900Z,101044.00
2019-05-20T11:47:02.844Z,101047.60
2019-05-20T11:52:04.809Z,101050.13
2019-05-20T11:57:06.613Z,101052.57
2019-05-20T12:02:08.499Z,101047.05
2019-05-20T12:07:10.476Z,101054.80
2019-05-20T12:12:12.388Z,101059.21
2019-05-20T12:17:14.301Z,101049.38
2019-05-20T12:22:16.243Z,101055.80
2019-05-20T12:27:18.117Z,101063.53
2019-05-20T12:32:20.058Z,101077.31
2019-05-20T12:37:21.960Z,101083.99
2019-05-20T12:42:24.236Z,101075.23
2019-05-20T12:47:26.680Z,101078.50
2019-05-20T12:52:28.889Z,101086.23
2019-05-20T12:57:35.206Z,101075.66
2019-05-20T13:02:37.270Z,101074.11
2019-05-20T13:07:39.179Z,101064.69
2019-05-20T13:12:43.912Z,101064.47
2019-05-20T13:17:45.835Z,101057.33
2019-05-20T13:22:49.000Z,101052.91
2019-05-20T13:27:50.921Z,101043.78
2019-05-20T13:32:53.042Z,101052.09
2019-05-20T13:37:54.961Z,101052.31
2019-05-20T13:42:57.214Z,101059.74
2019-05-20T13:47:59.133Z,101061.02
2019-05-20T13:53:02.323Z,101060.02
2019-05-20T13:58:04.266Z,101059.11
2019-05-20T14:03:06.515Z,101051.60
2019-05-20T14:08:08.701Z,101055.58
2019-05-20T14:13:10.747Z,101055.76
2019-05-20T14:18:15.729Z,101054.90
2019-05-20T14:23:17.746Z,101056.02
2019-05-20T14:28:21.336Z,101061.50
2019-05-20T14:33:23.450Z,101072.45
2019-05-20T14:38:25.417Z,101066.17
2019-05-20T14:43:27.604Z,101067.23
2019-05-20T14:48:32.330Z,101083.75
2019-05-20T14:53:35.567Z,101092.59
2019-05-20T14:58:39.632Z,101095.27
2019-05-20T15:03:41.623Z,101082.08
2019-05-20T15:08:45.884Z,101098.08
2019-05-20T15:13:48.057Z,101094.94
2019-05-20T15:18:51.881Z,101106.05
2019-05-20T15:23:55.593Z,101108.03
2019-05-20T15:28:57.641Z,101101.11
2019-05-20T15:34:03.134Z,101109.77
2019-05-20T15:39:06.229Z,101114.31
2019-05-20T15:44:08.288Z,101110.38
2019-05-20T15:49:11.462Z,101112.31
2019-05-20T15:54:13.408Z,101107.34
2019-05-20T15:59:15.406Z,101116.09
2019-05-20T16:04:17.488Z,101108.91
2019-05-20T16:09:19.741Z,101109.08
2019-05-20T16:14:23.875Z,101108.76
2019-05-20T16:19:25.855Z,101110.58
2019-05-20T16:24:28.057Z,101104.22
2019-05-20T16:29:30.029Z,101102.73
2019-05-20T16:34:32.126Z,101102.55
2019-05-20T16:39:36.317Z,101097.13
2019-05-20T16:44:38.470Z,101098.27
2019-05-20T16:49:44.508Z,101107.70
2019-05-20T16:54:49.468Z,101109.28
2019-05-20T16:59:51.827Z,101112.19
2019-05-20T17:04:55.554Z,101111.55
2019-05-20T17:09:57.463Z,101109.50
2019-05-20T17:14:59.478Z,101104.34
2019-05-20T17:20:01.457Z,101104.22
2019-05-20T17:25:07.248Z,101099.57
2019-05-20T17:30:14.106Z,101109.06
2019-05-20T17:35:19.026Z,101101.99
2019-05-20T17:40:22.146Z,101111.81
2019-05-20T17:45:28.262Z,101111.07
2019-05-20T17:50:31.623Z,101112.30
2019-05-20T17:55:33.931Z,101107.34
2019-05-20T18:00:36.039Z,101111.73
2019-05-20T18:05:38.187Z,101118.97
2019-05-20T18:10:40.207Z,101107.87
2019-05-20T18:15:42.615Z,101115.30
2019-05-20T18:20:44.482Z,101121.67
2019-05-20T18:25:47.953Z,101129.98
2019-05-20T18:30:49.880Z,101146.80
2019-05-20T18:35:53.151Z,101157.30
2019-05-20T18:40:57.637Z,101157.30
2019-05-20T18:46:00.748Z,101163.83
2019-05-20T18:51:02.727Z,101172.69
2019-05-20T18:56:04.884Z,101175.83
2019-05-20T19:01:06.702Z,101176.09
2019-05-20T19:06:10.223Z,101192.38
2019-05-20T19:11:12.127Z,101196.36
2019-05-20T19:16:15.377Z,101197.62
2019-05-20T19:21:19.697Z,101206.33
2019-05-20T19:26:25.127Z,101208.66
2019-05-20T19:31:25.621Z,101214.70
2019-05-20T19:36:27.603Z,101214.06
2019-05-20T19:41:29.545Z,101215.56
2019-05-20T19:46:34.384Z,101215.10
2019-05-20T19:51:36.195Z,101216.08
2019-05-20T19:56:38.261Z,101235.92
2019-05-20T20:01:40.288Z,101240.77
2019-05-20T20:06:42.554Z,101247.99
2019-05-20T20:11:44.520Z,101249.98
2019-05-20T20:16:48.523Z,101251.66
2019-05-20T20:21:51.628Z,101251.63
2019-05-20T20:26:53.685Z,101246.28
2019-05-20T20:31:55.712Z,101259.70
2019-05-20T20:36:59.558Z,101260.38
2019-05-20T20:42:01.584Z,101268.41
2019-05-20T20:47:03.580Z,101263.73
2019-05-20T20:52:08.431Z,101256.98
2019-05-20T20:57:10.340Z,101260.25
2019-05-20T21:02:12.284Z,101263.98
2019-05-20T21:07:14.215Z,101268.70
2019-05-20T21:12:16.334Z,101272.78
2019-05-20T21:17:18.358Z,101274.63
2019-05-20T21:22:20.284Z,101281.47
2019-05-20T21:27:24.008Z,101284.84
2019-05-20T21:32:26.026Z,101291.52
2019-05-20T21:37:28.821Z,101297.63
2019-05-20T21:42:32.590Z,101308.83
2019-05-20T21:47:36.612Z,101297.02
2019-05-20T21:52:38.951Z,101297.51
2019-05-20T21:57:40.997Z,101293.58
2019-05-20T22:02:44.149Z,101291.72
2019-05-20T22:07:46.175Z,101292.39
2019-05-20T22:12:48.452Z,101297.41
2019-05-20T22:17:52.060Z,101290.61
2019-05-20T22:23:12.796Z,101289.73
2019-05-20T22:28:14.896Z,101282.16
2019-05-20T22:33:19.343Z,101286.48
2019-05-20T22:38:23.919Z,101281.64
2019-05-20T22:43:25.937Z,101280.67
2019-05-20T22:48:27.950Z,101273.23
2019-05-20T22:53:30.062Z,101267.96
2019-05-20T22:58:38.571Z,101263.38
2019-05-20T23:03:55.373Z,101259.31
2019-05-20T23:08:49.267Z,101266.23
2019-05-20T23:13:53.258Z,101276.44
2019-05-20T23:18:55.564Z,101272.29
2019-05-20T23:23:57.613Z,101263.87
2019-05-20T23:28:59.633Z,101271.05
2019-05-20T23:34:12.256Z,101265.94
2019-05-20T23:39:06.829Z,101265.24
2019-05-20T23:44:12.760Z,101272.59
2019-05-20T23:49:14.892Z,101273.95
2019-05-20T23:54:17.270Z,101276.02
2019-05-20T23:59:23.064Z,101279.36
